Time;durP1;ratioP1;P1;durP2;ratioP2;P2;SDS_P1;SDS_P2;PMS_P1;PMS_P2;Temp;Humidity;BMP_temperature;BMP_pressure;BME280_temperature;BME280_humidity;BME280_pressure;Samples;Min_cycle;Max_cycle;Signal;HPM_P1;HPM_P2
2022/04/06 00:00:10;;;;;;;34.00;13.90;;;8.50;99.90;;;;;;4998631;28;20493;-76
2022/04/06 00:02:40;;;;;;;39.50;13.65;;;8.50;99.90;;;;;;4964847;28;20053;-77
2022/04/06 00:05:10;;;;;;;32.15;14.38;;;8.40;99.90;;;;;;4965007;28;20536;-76
2022/04/06 00:07:42;;;;;;;32.38;14.82;;;8.50;99.90;;;;;;4964998;28;20468;-76
2022/04/06 00:10:10;;;;;;;38.90;15.93;;;8.50;99.90;;;;;;4980993;28;20038;-76
2022/04/06 00:12:37;;;;;;;46.85;16.30;;;8.40;99.90;;;;;;4964380;28;20293;-76
2022/04/06 00:15:06;;;;;;;37.28;17.20;;;8.60;99.90;;;;;;4980852;28;20096;-77
2022/04/06 00:17:32;;;;;;;47.85;16.50;;;8.40;99.90;;;;;;4980857;28;20046;-77
2022/04/06 00:19:57;;;;;;;45.90;17.70;;;8.40;99.90;;;;;;4981049;28;20335;-76
2022/04/06 00:22:23;;;;;;;39.83;16.92;;;8.40;99.90;;;;;;4981237;28;20057;-77
2022/04/06 00:24:49;;;;;;;39.22;16.23;;;8.40;99.90;;;;;;4981134;28;20128;-75
2022/04/06 00:27:15;;;;;;;36.33;15.68;;;8.40;99.90;;;;;;4980927;28;20470;-79
2022/04/06 00:29:40;;;;;;;41.25;16.73;;;8.40;99.90;;;;;;4980420;28;20069;-78
2022/04/06 00:32:06;;;;;;;43.42;17.98;;;8.40;99.90;;;;;;4980927;28;20143;-76
2022/04/06 00:37:16;;;;;;;38.10;17.00;;;8.80;99.90;;;;;;4980832;28;20147;-76
2022/04/06 00:39:42;;;;;;;43.83;16.40;;;8.50;99.90;;;;;;4997477;28;20082;-76
2022/04/06 00:42:07;;;;;;;47.67;17.25;;;8.40;99.90;;;;;;4997721;28;20045;-77
2022/04/06 00:44:34;;;;;;;41.88;16.40;;;8.50;99.90;;;;;;4964140;28;20053;-76
2022/04/06 00:47:03;;;;;;;39.00;15.63;;;8.50;99.90;;;;;;4997554;28;20038;-76
2022/04/06 00:49:30;;;;;;;40.33;16.08;;;8.50;99.90;;;;;;4997457;28;20085;-77
2022/04/06 00:51:56;;;;;;;43.15;16.02;;;8.50;99.90;;;;;;4980245;28;20489;-77
2022/04/06 00:54:23;;;;;;;48.05;16.73;;;8.50;99.90;;;;;;4997581;28;20089;-77
2022/04/06 00:56:49;;;;;;;36.30;15.30;;;8.50;99.90;;;;;;4997790;28;20368;-74
2022/04/06 00:59:17;;;;;;;41.03;15.63;;;8.50;99.90;;;;;;4977366;28;20490;-78
2022/04/06 01:01:48;;;;;;;31.25;15.38;;;8.50;99.90;;;;;;4980151;28;20050;-77
2022/04/06 01:04:15;;;;;;;36.63;15.48;;;8.50;99.90;;;;;;4996253;28;20085;-76
2022/04/06 01:06:41;;;;;;;43.05;16.17;;;8.50;99.90;;;;;;4980140;28;20050;-75
2022/04/06 01:09:07;;;;;;;41.38;15.93;;;8.90;99.90;;;;;;4979918;28;20112;-77
2022/04/06 01:11:33;;;;;;;33.97;15.80;;;8.50;99.90;;;;;;4987604;28;20466;-77
2022/04/06 01:13:58;;;;;;;34.85;14.90;;;8.50;99.90;;;;;;4975496;28;20104;-77
2022/04/06 01:16:24;;;;;;;44.75;14.52;;;8.50;99.90;;;;;;4997064;28;20459;-76
2022/04/06 01:18:50;;;;;;;39.97;14.77;;;8.50;99.90;;;;;;4996154;28;20107;-76
2022/04/06 01:21:15;;;;;;;37.53;14.93;;;8.50;99.90;;;;;;4979211;28;20491;-77
2022/04/06 01:23:42;;;;;;;30.08;13.82;;;8.50;99.90;;;;;;4978684;28;20049;-78
2022/04/06 01:26:12;;;;;;;30.95;13.73;;;8.60;99.90;;;;;;4979909;28;20046;-76
2022/04/06 01:28:39;;;;;;;27.67;12.85;;;8.60;99.90;;;;;;4996718;28;20469;-77
2022/04/06 01:31:05;;;;;;;34.95;13.43;;;8.50;99.90;;;;;;4977426;28;20042;-76
2022/04/06 01:33:31;;;;;;;29.20;12.45;;;8.60;99.90;;;;;;4963561;28;20045;-77
2022/04/06 01:35:57;;;;;;;28.83;11.85;;;8.50;99.90;;;;;;4979452;28;20050;-77
2022/04/06 01:38:23;;;;;;;30.90;13.40;;;8.50;99.90;;;;;;4996561;28;20426;-76
2022/04/06 01:40:49;;;;;;;33.42;12.43;;;8.50;99.90;;;;;;4979235;28;20141;-76
2022/04/06 01:43:15;;;;;;;31.42;12.13;;;8.50;99.90;;;;;;4979529;28;20078;-79
2022/04/06 01:45:41;;;;;;;31.67;11.48;;;8.50;99.90;;;;;;4979273;28;20042;-77
2022/04/06 01:48:06;;;;;;;31.52;10.93;;;8.50;99.90;;;;;;4979189;28;20053;-76
2022/04/06 01:53:16;;;;;;;37.80;11.63;;;8.60;99.90;;;;;;4979451;28;20069;-76
2022/04/06 01:55:42;;;;;;;23.80;10.65;;;8.50;99.90;;;;;;4979025;28;20043;-77
2022/04/06 01:58:08;;;;;;;23.35;9.95;;;8.60;99.90;;;;;;4993307;28;20509;-75
2022/04/06 02:00:33;;;;;;;27.67;10.27;;;8.60;99.90;;;;;;4979038;28;20136;-77
2022/04/06 02:03:00;;;;;;;26.58;12.13;;;8.60;99.90;;;;;;4979009;28;20081;-77
2022/04/06 02:05:32;;;;;;;28.88;11.50;;;8.60;99.90;;;;;;4996054;28;20076;-78
2022/04/06 02:07:58;;;;;;;26.20;11.60;;;8.60;99.90;;;;;;4996161;28;20459;-77
2022/04/06 02:10:23;;;;;;;25.58;10.90;;;8.60;99.90;;;;;;4995833;28;20038;-77
2022/04/06 02:12:51;;;;;;;30.20;11.68;;;8.60;99.90;;;;;;4996201;28;20045;-77
2022/04/06 02:15:17;;;;;;;32.00;12.40;;;8.60;99.90;;;;;;4978618;28;20039;-78
2022/04/06 02:17:43;;;;;;;28.33;10.95;;;8.60;99.90;;;;;;4962724;28;20049;-76
2022/04/06 02:20:10;;;;;;;29.70;11.00;;;8.90;99.90;;;;;;4996001;28;20489;-78
2022/04/06 02:22:36;;;;;;;23.23;10.48;;;8.70;99.90;;;;;;4995846;28;20061;-77
2022/04/06 02:25:02;;;;;;;21.88;10.23;;;8.70;99.90;;;;;;4979040;28;20410;-76
2022/04/06 02:27:27;;;;;;;26.98;9.52;;;8.60;99.90;;;;;;4995838;28;20034;-77
2022/04/06 02:29:53;;;;;;;21.23;9.27;;;8.70;99.90;;;;;;4995774;28;20045;-77
2022/04/06 02:32:19;;;;;;;19.52;9.68;;;8.60;99.90;;;;;;4976545;28;20054;-76
2022/04/06 02:34:44;;;;;;;22.42;9.10;;;8.60;99.90;;;;;;4978158;28;20125;-77
2022/04/06 02:37:12;;;;;;;25.00;8.60;;;8.60;99.90;;;;;;4978600;28;20042;-77
2022/04/06 02:39:37;;;;;;;26.20;10.00;;;8.60;99.90;;;;;;4978011;28;20038;-78
2022/04/06 02:42:03;;;;;;;23.58;8.55;;;9.30;99.90;;;;;;4978572;28;20108;-76
2022/04/06 02:44:29;;;;;;;19.05;7.65;;;8.60;99.90;;;;;;4962273;28;20042;-76
2022/04/06 02:46:55;;;;;;;17.02;6.90;;;8.60;99.90;;;;;;4994553;28;20043;-77
2022/04/06 02:49:20;;;;;;;17.80;7.22;;;8.60;99.90;;;;;;4977197;28;20486;-77
2022/04/06 02:51:46;;;;;;;19.20;6.88;;;8.60;99.90;;;;;;4978213;28;20061;-76
2022/04/06 02:54:12;;;;;;;24.80;7.03;;;8.60;99.90;;;;;;4974157;28;20045;-77
2022/04/06 02:56:38;;;;;;;17.05;6.82;;;8.60;99.90;;;;;;4978394;28;20048;-77
2022/04/06 02:59:03;;;;;;;16.42;6.78;;;8.70;99.90;;;;;;4977992;28;20052;-76
2022/04/06 03:01:29;;;;;;;14.30;6.57;;;8.60;99.90;;;;;;4962198;28;20060;-76
2022/04/06 03:03:55;;;;;;;21.92;7.18;;;8.50;99.90;;;;;;4988830;28;20053;-76
2022/04/06 03:06:20;;;;;;;14.20;5.57;;;8.80;99.90;;;;;;4962253;28;20459;-78
2022/04/06 03:08:46;;;;;;;16.30;6.45;;;8.50;99.90;;;;;;4978139;28;20065;-77
2022/04/06 03:11:12;;;;;;;14.25;6.45;;;8.50;99.90;;;;;;4978081;28;20038;-77
2022/04/06 03:13:38;;;;;;;15.63;6.85;;;8.50;99.90;;;;;;4995336;28;20057;-77
2022/04/06 03:16:05;;;;;;;17.33;6.35;;;8.50;99.90;;;;;;4962119;28;20034;-75
2022/04/06 03:18:30;;;;;;;15.13;5.63;;;8.50;99.90;;;;;;4977957;28;20073;-76
2022/04/06 03:20:58;;;;;;;17.13;6.43;;;8.50;99.90;;;;;;4995216;28;20030;-77
2022/04/06 03:23:24;;;;;;;19.58;5.45;;;8.50;99.90;;;;;;4978057;28;20042;-79
2022/04/06 03:25:50;;;;;;;16.13;5.60;;;8.50;99.90;;;;;;4977803;28;20050;-77
2022/04/06 03:28:15;;;;;;;13.18;5.25;;;8.50;99.90;;;;;;4978315;28;20066;-77
2022/04/06 03:30:41;;;;;;;16.05;5.78;;;8.50;99.90;;;;;;4995286;28;20076;-76
2022/04/06 03:33:09;;;;;;;14.98;5.55;;;8.50;99.90;;;;;;4977819;28;20045;-76
2022/04/06 03:35:36;;;;;;;16.13;5.90;;;8.50;99.90;;;;;;4978035;28;20363;-77
2022/04/06 03:38:02;;;;;;;17.75;5.93;;;8.50;99.90;;;;;;4962268;28;20461;-75
2022/04/06 03:40:30;;;;;;;18.10;5.95;;;8.50;99.90;;;;;;4978231;28;20193;-77
2022/04/06 03:42:57;;;;;;;26.95;6.70;;;8.50;99.90;;;;;;4995202;28;20088;-77
2022/04/06 03:45:23;;;;;;;23.70;7.65;;;8.50;99.90;;;;;;4978039;28;20066;-77
2022/04/06 03:47:48;;;;;;;21.70;7.78;;;8.50;99.90;;;;;;4964017;28;20144;-76
2022/04/06 03:50:14;;;;;;;20.42;8.57;;;8.50;99.90;;;;;;4997047;28;20475;-79
2022/04/06 03:52:40;;;;;;;28.95;8.80;;;8.50;99.90;;;;;;4998688;28;20035;-77
2022/04/06 03:55:07;;;;;;;21.77;8.80;;;8.50;99.90;;;;;;4965089;28;20043;-77
2022/04/06 03:57:38;;;;;;;24.55;9.00;;;8.50;99.90;;;;;;4983201;28;20038;-75
2022/04/06 04:00:07;;;;;;;26.30;9.32;;;8.50;99.90;;;;;;5004691;28;20048;-77
2022/04/06 04:02:34;;;;;;;22.60;9.18;;;8.50;99.90;;;;;;5000978;28;20042;-76
2022/04/06 04:05:00;;;;;;;32.05;11.02;;;8.50;99.90;;;;;;4964334;28;20042;-75
2022/04/06 04:07:26;;;;;;;27.05;10.43;;;8.50;99.90;;;;;;4996917;28;20057;-75
2022/04/06 04:09:52;;;;;;;24.13;9.85;;;8.60;99.90;;;;;;4980399;28;20038;-75
2022/04/06 04:12:18;;;;;;;29.25;10.68;;;8.50;99.90;;;;;;4997516;28;20042;-74
2022/04/06 04:14:44;;;;;;;33.60;11.35;;;8.50;99.90;;;;;;4980854;28;20057;-74
2022/04/06 04:17:10;;;;;;;25.00;10.63;;;8.60;99.90;;;;;;4981535;28;20058;-75
2022/04/06 04:19:36;;;;;;;34.75;11.85;;;8.60;99.90;;;;;;4981122;28;20108;-76
2022/04/06 04:22:02;;;;;;;28.52;12.55;;;8.60;99.90;;;;;;4998123;28;20057;-75
2022/04/06 04:24:27;;;;;;;32.40;13.30;;;8.60;99.90;;;;;;4998317;28;20049;-75
2022/04/06 04:26:53;;;;;;;38.60;12.60;;;8.60;99.90;;;;;;4998043;28;20379;-77
2022/04/06 04:29:19;;;;;;;30.02;12.45;;;8.60;99.90;;;;;;4998115;28;20082;-76
2022/04/06 04:31:46;;;;;;;26.70;11.45;;;8.60;99.90;;;;;;4997207;28;20108;-78
2022/04/06 04:34:12;;;;;;;40.65;12.55;;;8.60;99.90;;;;;;4979745;28;20050;-76
2022/04/06 04:36:38;;;;;;;37.97;12.35;;;8.60;99.90;;;;;;4997283;28;20382;-74
2022/04/06 04:39:04;;;;;;;27.15;12.32;;;8.60;99.90;;;;;;4979725;28;20049;-75
2022/04/06 04:41:29;;;;;;;37.05;13.35;;;8.60;99.90;;;;;;4980205;28;20039;-76
2022/04/06 04:43:55;;;;;;;29.08;12.73;;;8.60;99.90;;;;;;4980479;28;20057;-75
2022/04/06 04:46:21;;;;;;;31.50;12.30;;;8.60;99.90;;;;;;4980096;28;20053;-76
2022/04/06 04:48:47;;;;;;;32.17;11.65;;;8.60;99.90;;;;;;4997639;28;20706;-75
2022/04/06 04:51:13;;;;;;;37.72;11.43;;;8.70;99.90;;;;;;4980583;28;20052;-77
2022/04/06 04:53:39;;;;;;;32.83;11.00;;;8.50;99.90;;;;;;4997931;28;20136;-76
2022/04/06 04:56:05;;;;;;;25.75;10.55;;;8.50;99.90;;;;;;4980025;28;20076;-76
2022/04/06 04:58:31;;;;;;;29.08;10.90;;;8.50;99.90;;;;;;4980120;28;20121;-73
2022/04/06 05:00:57;;;;;;;28.25;10.75;;;8.50;99.90;;;;;;4997164;28;20133;-77
2022/04/06 05:03:22;;;;;;;30.88;9.65;;;8.50;99.90;;;;;;4979168;28;20418;-76
2022/04/06 05:05:53;;;;;;;25.58;9.75;;;8.40;99.90;;;;;;4980516;28;20051;-76
2022/04/06 05:08:20;;;;;;;21.65;8.98;;;8.40;99.90;;;;;;4980245;28;20371;-76
2022/04/06 05:10:45;;;;;;;26.90;9.15;;;8.90;99.90;;;;;;4979915;28;20054;-75
2022/04/06 05:13:13;;;;;;;22.52;8.43;;;8.40;99.90;;;;;;4979814;28;20539;-76
2022/04/06 05:15:39;;;;;;;28.48;9.50;;;8.40;99.90;;;;;;4996419;28;20459;-76
2022/04/06 05:18:04;;;;;;;29.63;10.05;;;8.40;99.90;;;;;;4979651;28;20058;-76
2022/04/06 05:20:30;;;;;;;21.00;8.23;;;8.40;99.90;;;;;;4963519;28;20047;-77
2022/04/06 05:22:55;;;;;;;28.20;8.55;;;8.40;99.90;;;;;;4996575;28;20038;-76
2022/04/06 05:25:21;;;;;;;23.92;8.23;;;8.40;99.90;;;;;;4995172;28;20047;-76
2022/04/06 05:27:52;;;;;;;26.65;8.00;;;8.30;99.90;;;;;;4978908;28;20038;-77
2022/04/06 05:30:19;;;;;;;24.88;7.53;;;8.40;99.90;;;;;;4989101;28;20058;-76
2022/04/06 05:32:46;;;;;;;25.60;7.97;;;8.40;99.90;;;;;;4977216;28;20064;-75
2022/04/06 05:35:13;;;;;;;15.73;6.35;;;8.40;99.90;;;;;;4978822;28;20050;-79
2022/04/06 05:37:40;;;;;;;24.52;7.80;;;8.40;99.90;;;;;;4978471;28;20034;-74
2022/04/06 05:40:08;;;;;;;22.10;7.28;;;8.50;99.90;;;;;;4962877;28;20038;-74
2022/04/06 05:42:34;;;;;;;21.73;6.55;;;8.40;99.90;;;;;;4995847;28;20205;-76
2022/04/06 05:45:00;;;;;;;21.75;6.38;;;8.40;99.90;;;;;;4979735;28;20362;-77
2022/04/06 05:47:25;;;;;;;21.83;6.22;;;8.40;99.90;;;;;;4989972;28;20046;-74
2022/04/06 05:49:51;;;;;;;21.40;5.85;;;8.40;99.90;;;;;;4975693;28;20459;-77
2022/04/06 05:52:17;;;;;;;27.98;5.68;;;8.40;99.90;;;;;;4992831;28;20050;-76
2022/04/06 05:54:42;;;;;;;18.63;5.88;;;8.40;99.90;;;;;;4995964;28;20053;-77
2022/04/06 05:57:08;;;;;;;19.95;5.85;;;8.40;99.90;;;;;;4962381;28;20042;-76
2022/04/06 05:59:36;;;;;;;19.85;5.38;;;8.50;99.90;;;;;;4974420;28;20073;-76
2022/04/06 06:02:03;;;;;;;19.17;5.60;;;8.50;99.90;;;;;;4978875;28;20045;-77
2022/04/06 06:04:29;;;;;;;26.70;5.85;;;8.50;99.90;;;;;;4978289;28;20038;-77
2022/04/06 06:06:54;;;;;;;17.85;5.78;;;8.50;99.90;;;;;;4978805;28;20347;-76
2022/04/06 06:09:20;;;;;;;22.90;5.70;;;8.50;99.90;;;;;;4977999;28;20534;-77
2022/04/06 06:11:46;;;;;;;15.25;5.28;;;8.50;99.90;;;;;;4996622;28;20382;-76
2022/04/06 06:14:11;;;;;;;16.02;5.25;;;8.80;99.90;;;;;;4962826;28;20046;-77
2022/04/06 06:16:37;;;;;;;13.10;4.40;;;8.40;99.90;;;;;;4978204;28;20038;-77
2022/04/06 06:19:02;;;;;;;21.33;5.60;;;8.50;99.90;;;;;;4995878;28;20057;-78
2022/04/06 06:21:31;;;;;;;15.55;5.22;;;8.40;99.90;;;;;;4962008;28;20037;-76
2022/04/06 06:24:04;;;;;;;12.27;5.18;;;8.40;99.90;;;;;;4995687;28;20050;-72
2022/04/06 06:26:30;;;;;;;18.55;6.10;;;8.40;99.90;;;;;;4977982;28;20061;-77
2022/04/06 06:28:55;;;;;;;19.33;5.68;;;8.40;99.90;;;;;;4979000;28;20112;-77
2022/04/06 06:31:21;;;;;;;20.35;5.63;;;8.30;99.90;;;;;;4985504;28;20082;-74
2022/04/06 06:33:47;;;;;;;18.75;5.57;;;8.40;99.90;;;;;;4979920;28;20060;-74
2022/04/06 06:36:12;;;;;;;14.25;4.97;;;8.30;99.90;;;;;;4995638;28;20042;-77
2022/04/06 06:38:38;;;;;;;14.23;5.18;;;8.30;99.90;;;;;;5003878;28;20506;-77
2022/04/06 06:41:03;;;;;;;15.38;5.15;;;8.30;99.90;;;;;;4995216;28;20042;-76
2022/04/06 06:43:29;;;;;;;18.98;4.75;;;8.30;99.90;;;;;;4962498;28;20046;-74
2022/04/06 06:45:55;;;;;;;16.92;4.95;;;8.30;99.90;;;;;;4961989;28;20042;-74
2022/04/06 06:48:20;;;;;;;15.32;4.95;;;8.30;99.90;;;;;;4961774;28;20050;-75
2022/04/06 06:50:46;;;;;;;18.48;4.88;;;8.30;99.90;;;;;;4997291;28;20077;-77
2022/04/06 06:53:11;;;;;;;10.50;4.55;;;8.30;99.90;;;;;;4961821;28;20080;-75
2022/04/06 06:55:37;;;;;;;13.93;5.03;;;8.40;99.90;;;;;;4977948;28;20130;-78
2022/04/06 06:58:03;;;;;;;13.27;3.90;;;8.40;99.90;;;;;;4957160;28;20104;-78
2022/04/06 07:00:28;;;;;;;12.75;4.13;;;8.50;99.90;;;;;;4958976;28;20081;-76
2022/04/06 07:02:55;;;;;;;14.63;3.97;;;8.50;99.90;;;;;;4992022;28;20030;-76
2022/04/06 07:05:22;;;;;;;15.15;4.18;;;8.90;99.90;;;;;;4961924;28;20085;-78
2022/04/06 07:07:52;;;;;;;10.60;3.70;;;8.90;99.90;;;;;;4973384;28;20046;-78
2022/04/06 07:10:18;;;;;;;12.35;4.05;;;8.50;99.90;;;;;;4991949;28;20367;-76
2022/04/06 07:12:43;;;;;;;11.10;3.90;;;8.90;99.90;;;;;;4969406;28;20054;-77
2022/04/06 07:15:10;;;;;;;17.45;4.25;;;8.90;99.90;;;;;;4971421;28;20049;-76
2022/04/06 07:17:35;;;;;;;12.95;3.85;;;8.80;99.90;;;;;;4989112;28;20038;-78
2022/04/06 07:20:01;;;;;;;15.07;4.07;;;8.50;99.90;;;;;;4992193;28;20114;-77
2022/04/06 07:22:27;;;;;;;14.75;4.22;;;8.90;99.90;;;;;;4979760;28;20048;-76
2022/04/06 07:24:52;;;;;;;14.25;4.53;;;7.60;99.90;;;;;;4981597;28;20360;-76
2022/04/06 07:27:18;;;;;;;14.48;4.25;;;9.00;99.90;;;;;;4981832;28;20089;-78
2022/04/06 07:29:43;;;;;;;15.43;4.60;;;8.90;99.90;;;;;;4986261;28;20045;-76
2022/04/06 07:32:09;;;;;;;13.57;4.82;;;9.30;99.90;;;;;;5002529;28;20113;-75
2022/04/06 07:34:35;;;;;;;9.48;4.50;;;8.60;99.90;;;;;;4998532;28;20038;-77
2022/04/06 07:37:01;;;;;;;15.73;4.43;;;8.90;99.90;;;;;;4997222;28;20155;-78
2022/04/06 07:39:27;;;;;;;15.95;4.68;;;8.60;99.90;;;;;;4964832;28;20113;-76
2022/04/06 07:41:56;;;;;;;15.32;4.90;;;9.10;99.90;;;;;;4998411;28;20121;-78
2022/04/06 07:44:22;;;;;;;17.40;4.65;;;8.70;99.90;;;;;;4964563;28;20069;-74
2022/04/06 07:46:49;;;;;;;13.93;5.00;;;9.20;99.90;;;;;;4981305;28;20050;-75
2022/04/06 07:49:15;;;;;;;16.90;6.13;;;8.60;99.90;;;;;;4980882;28;20166;-75
2022/04/06 07:51:40;;;;;;;15.73;4.95;;;9.00;99.90;;;;;;4964751;28;20112;-74
2022/04/06 07:54:06;;;;;;;16.20;5.28;;;8.90;99.90;;;;;;4998284;28;21019;-76
2022/04/06 07:56:32;;;;;;;21.33;6.00;;;8.90;99.90;;;;;;4964935;28;20133;-76
2022/04/06 07:58:57;;;;;;;24.85;5.57;;;8.70;99.90;;;;;;4965152;28;20046;-76
2022/04/06 08:01:23;;;;;;;19.42;5.63;;;9.30;99.90;;;;;;4980946;28;20061;-74
2022/04/06 08:03:49;;;;;;;20.02;5.35;;;9.30;99.90;;;;;;4980634;28;20045;-74
2022/04/06 08:06:14;;;;;;;19.92;5.40;;;8.60;99.90;;;;;;4997324;28;20064;-76
2022/04/06 08:08:40;;;;;;;19.95;5.35;;;8.60;99.90;;;;;;4997749;28;20038;-74
2022/04/06 08:11:06;;;;;;;18.88;5.55;;;8.60;99.90;;;;;;4979855;28;20057;-76
2022/04/06 08:13:32;;;;;;;20.58;5.57;;;8.60;99.90;;;;;;4996861;28;20423;-75
2022/04/06 08:15:59;;;;;;;17.45;5.35;;;8.60;99.90;;;;;;4997101;28;20048;-76
2022/04/06 08:18:25;;;;;;;19.50;5.45;;;8.60;99.90;;;;;;4980415;28;20042;-75
2022/04/06 08:20:50;;;;;;;25.73;6.72;;;8.70;99.90;;;;;;4997629;28;20474;-75
2022/04/06 08:23:17;;;;;;;20.35;5.45;;;8.70;99.90;;;;;;4996988;28;20039;-72
2022/04/06 08:25:44;;;;;;;18.23;5.30;;;8.80;99.90;;;;;;4997531;28;20451;-75
2022/04/06 08:28:10;;;;;;;17.80;5.95;;;8.80;99.90;;;;;;4980388;28;20510;-75
2022/04/06 08:30:43;;;;;;;26.15;6.03;;;8.80;99.90;;;;;;4980501;28;20104;-75
2022/04/06 08:33:10;;;;;;;19.33;6.13;;;8.90;99.90;;;;;;4997261;28;20073;-74
2022/04/06 08:35:36;;;;;;;17.73;5.28;;;8.90;99.90;;;;;;4996795;28;20053;-76
2022/04/06 08:38:05;;;;;;;19.33;5.50;;;8.90;99.90;;;;;;4998029;28;20379;-75
2022/04/06 08:40:32;;;;;;;13.20;5.38;;;8.90;99.90;;;;;;4996727;28;20046;-73
2022/04/06 08:42:59;;;;;;;19.80;5.63;;;8.90;99.90;;;;;;4997612;28;20050;-75
2022/04/06 08:45:24;;;;;;;13.32;4.82;;;9.00;99.90;;;;;;4997480;28;20052;-75
2022/04/06 08:47:51;;;;;;;13.98;4.28;;;8.90;99.90;;;;;;4997319;28;20046;-74
2022/04/06 08:50:20;;;;;;;10.57;4.75;;;8.80;99.90;;;;;;4963200;28;20054;-74
2022/04/06 08:52:46;;;;;;;13.02;4.53;;;8.80;99.90;;;;;;4996568;28;20066;-76
2022/04/06 08:55:15;;;;;;;11.88;5.07;;;8.80;99.90;;;;;;4963936;28;20440;-75
2022/04/06 08:57:41;;;;;;;11.77;4.65;;;8.90;99.90;;;;;;4980261;28;20047;-73
2022/04/06 09:00:07;;;;;;;14.10;4.50;;;8.90;99.90;;;;;;4964246;28;20038;-74
2022/04/06 09:02:33;;;;;;;15.48;4.70;;;9.00;99.90;;;;;;4997665;28;20034;-76
2022/04/06 09:05:02;;;;;;;14.00;4.68;;;8.90;99.90;;;;;;4997441;28;20046;-75
2022/04/06 09:07:28;;;;;;;16.13;5.07;;;9.00;99.90;;;;;;4980063;28;20468;-74
2022/04/06 09:09:55;;;;;;;14.00;4.95;;;9.00;99.90;;;;;;4980088;28;20105;-75
2022/04/06 09:12:25;;;;;;;13.50;4.90;;;9.10;99.90;;;;;;4997261;28;20088;-74
2022/04/06 09:15:11;;;;;;;18.40;5.20;;;9.10;99.90;;;;;;4997001;28;20042;-74
2022/04/06 09:17:49;;;;;;;13.27;5.07;;;9.20;99.90;;;;;;4996951;28;20051;-73
2022/04/06 09:20:19;;;;;;;15.48;4.63;;;9.50;99.90;;;;;;4980240;28;20046;-74
2022/04/06 09:22:44;;;;;;;14.02;4.88;;;9.50;99.90;;;;;;4996873;28;20042;-74
2022/04/06 09:25:10;;;;;;;14.55;4.50;;;9.50;99.90;;;;;;4979665;28;20049;-74
2022/04/06 09:27:40;;;;;;;14.55;4.40;;;9.50;99.90;;;;;;4996752;28;20038;-75
2022/04/06 09:30:07;;;;;;;19.40;4.63;;;9.60;99.90;;;;;;4996815;28;20043;-73
2022/04/06 09:32:33;;;;;;;13.18;4.28;;;9.60;99.90;;;;;;4996788;28;20046;-76
2022/04/06 09:34:58;;;;;;;14.90;4.78;;;9.70;99.90;;;;;;4995593;28;20069;-75
2022/04/06 09:37:26;;;;;;;19.98;4.80;;;9.60;99.90;;;;;;4996934;28;20050;-75
2022/04/06 09:39:52;;;;;;;14.68;4.60;;;9.60;99.90;;;;;;4963621;28;20439;-73
2022/04/06 09:42:21;;;;;;;17.27;4.57;;;9.60;99.90;;;;;;4996562;28;20112;-74
2022/04/06 09:47:38;;;;;;;11.13;4.00;;;9.80;99.90;;;;;;4979476;28;20070;-73
2022/04/06 09:50:19;;;;;;;12.00;3.92;;;9.90;99.90;;;;;;4996450;28;20077;-74
2022/04/06 09:52:45;;;;;;;14.82;4.05;;;9.90;99.90;;;;;;4995755;28;20070;-74
2022/04/06 09:55:13;;;;;;;15.63;4.05;;;10.00;99.90;;;;;;4996218;28;20081;-74
2022/04/06 09:57:47;;;;;;;14.13;4.10;;;10.10;99.90;;;;;;4979307;28;20054;-73
2022/04/06 10:00:19;;;;;;;14.93;4.55;;;10.10;99.90;;;;;;4962964;28;20054;-73
2022/04/06 10:02:48;;;;;;;12.30;4.15;;;10.20;99.90;;;;;;4996091;28;20112;-74
2022/04/06 10:05:17;;;;;;;17.65;4.72;;;10.30;99.90;;;;;;4995929;28;20125;-75
2022/04/06 10:07:43;;;;;;;13.80;4.75;;;10.30;99.90;;;;;;4996127;28;20065;-75
2022/04/06 10:10:12;;;;;;;19.83;4.85;;;10.30;99.90;;;;;;4996175;28;20459;-75
2022/04/06 10:12:39;;;;;;;16.27;4.32;;;10.30;99.90;;;;;;4978747;28;20041;-75
2022/04/06 10:15:06;;;;;;;14.13;4.50;;;10.20;99.90;;;;;;4978844;28;20050;-74
2022/04/06 10:17:32;;;;;;;14.43;4.25;;;10.20;99.90;;;;;;4995741;28;20038;-75
2022/04/06 10:20:19;;;;;;;17.60;4.63;;;10.20;99.90;;;;;;4978984;28;20053;-75
2022/04/06 10:23:16;;;;;;;16.75;4.47;;;10.10;99.90;;;;;;4978190;28;20050;-75
2022/04/06 10:26:06;;;;;;;12.40;4.68;;;10.10;99.90;;;;;;4978503;28;20054;-74
2022/04/06 10:28:33;;;;;;;17.95;5.35;;;10.10;99.90;;;;;;4979413;28;20042;-74
2022/04/06 10:31:27;;;;;;;20.83;5.72;;;10.00;99.90;;;;;;4979080;28;20430;-75
2022/04/06 10:34:13;;;;;;;;;;;10.00;99.90;;;;;;4996293;28;20366;-74
2022/04/06 10:36:41;;;;;;;17.45;5.30;;;10.00;99.90;;;;;;4978482;28;19980;-75
2022/04/06 10:39:06;;;;;;;18.27;5.40;;;9.90;99.90;;;;;;4978276;28;20046;-74
2022/04/06 10:41:33;;;;;;;19.23;5.63;;;10.00;99.90;;;;;;4978488;28;20050;-74
2022/04/06 10:43:59;;;;;;;20.90;5.43;;;9.90;99.90;;;;;;4995735;28;20066;-73
2022/04/06 10:46:35;;;;;;;18.15;5.63;;;9.90;99.90;;;;;;4978215;28;20089;-73
2022/04/06 10:49:15;;;;;;;12.80;5.28;;;10.00;99.90;;;;;;4995377;28;20058;-74
2022/04/06 10:51:41;;;;;;;17.40;6.03;;;10.00;99.90;;;;;;4978471;28;20088;-77
2022/04/06 10:54:12;;;;;;;19.25;6.63;;;10.00;99.90;;;;;;4995320;28;20371;-75
2022/04/06 10:56:50;;;;;;;22.33;6.53;;;10.00;99.90;;;;;;4977868;28;20054;-74
2022/04/06 10:59:20;;;;;;;16.40;6.43;;;10.00;99.90;;;;;;4995274;28;20113;-74
2022/04/06 11:01:48;;;;;;;25.08;6.95;;;9.90;99.90;;;;;;4978388;28;20474;-75
2022/04/06 11:04:21;;;;;;;18.95;6.72;;;9.90;99.90;;;;;;4995179;28;20042;-73
2022/04/06 11:06:52;;;;;;;22.55;7.05;;;9.90;99.90;;;;;;4961982;28;20050;-74
2022/04/06 11:12:19;;;;;;;17.80;7.82;;;9.90;99.90;;;;;;4995293;28;20063;-75
2022/04/06 11:14:49;;;;;;;20.98;7.25;;;9.80;99.90;;;;;;4962255;28;20062;-75
2022/04/06 11:17:32;;;;;;;21.85;7.40;;;9.90;99.90;;;;;;4995492;28;20069;-75
2022/04/06 11:19:58;;;;;;;24.25;7.68;;;9.90;99.90;;;;;;4995414;28;20121;-74
2022/04/06 11:22:24;;;;;;;22.88;7.97;;;9.90;99.90;;;;;;4994795;28;20039;-74
2022/04/06 11:24:50;;;;;;;19.85;6.85;;;9.90;99.90;;;;;;4995598;28;20112;-74
2022/04/06 11:27:32;;;;;;;25.45;7.50;;;9.90;99.90;;;;;;4977887;28;20084;-75
2022/04/06 11:30:21;;;;;;;21.58;6.95;;;9.90;99.90;;;;;;4995202;28;20125;-73
2022/04/06 11:32:52;;;;;;;21.20;7.68;;;9.90;99.90;;;;;;4977770;28;20054;-74
2022/04/06 11:35:18;;;;;;;19.42;7.38;;;10.00;99.90;;;;;;4962485;28;20077;-76
2022/04/06 11:37:46;;;;;;;17.92;7.10;;;10.10;99.90;;;;;;4995506;28;20459;-73
2022/04/06 11:40:14;;;;;;;17.45;7.13;;;10.40;99.90;;;;;;4961708;28;20085;-75
2022/04/06 11:42:40;;;;;;;24.08;7.78;;;10.70;99.90;;;;;;4994979;28;20057;-75
2022/04/06 11:45:06;;;;;;;17.33;6.45;;;10.80;99.90;;;;;;4994625;28;20042;-73
2022/04/06 11:47:37;;;;;;;18.17;6.82;;;10.80;99.90;;;;;;4978188;28;20060;-73
2022/04/06 11:50:08;;;;;;;21.50;7.00;;;10.80;99.90;;;;;;4958819;28;20062;-74
2022/04/06 11:52:36;;;;;;;17.33;6.97;;;10.80;99.90;;;;;;4942301;28;20068;-73
2022/04/06 11:55:02;;;;;;;14.93;6.38;;;11.00;99.90;;;;;;4975535;28;20070;-74
2022/04/06 11:57:56;;;;;;;20.70;6.65;;;11.20;99.90;;;;;;4958337;28;20435;-74
2022/04/06 12:00:24;;;;;;;18.73;6.47;;;11.20;99.90;;;;;;4942056;28;20050;-73
2022/04/06 12:02:52;;;;;;;20.95;7.28;;;11.30;99.90;;;;;;4975471;28;20043;-73
2022/04/06 12:05:19;;;;;;;14.20;5.82;;;11.10;99.90;;;;;;4958337;28;20134;-75
2022/04/06 12:07:45;;;;;;;16.67;7.07;;;11.10;99.90;;;;;;4959553;28;20070;-73
2022/04/06 12:10:11;;;;;;;15.90;6.22;;;11.00;99.90;;;;;;4979165;28;20423;-73
2022/04/06 12:12:38;;;;;;;12.90;5.85;;;11.00;99.90;;;;;;4962253;28;20332;-74
2022/04/06 12:15:05;;;;;;;18.45;5.97;;;11.00;99.90;;;;;;4978685;28;20053;-75
2022/04/06 12:17:33;;;;;;;18.40;6.13;;;11.00;99.90;;;;;;4961976;28;20051;-73
2022/04/06 12:19:58;;;;;;;16.67;5.60;;;11.10;99.90;;;;;;4961662;28;20126;-73
2022/04/06 12:22:26;;;;;;;16.17;5.38;;;11.30;99.90;;;;;;4957752;29;20137;-74
2022/04/06 12:24:52;;;;;;;13.07;5.63;;;11.50;99.90;;;;;;4927148;29;20055;-73
2022/04/06 12:27:28;;;;;;;19.30;5.65;;;11.60;99.90;;;;;;4942161;29;20051;-74
2022/04/06 12:30:08;;;;;;;14.27;5.03;;;11.50;99.90;;;;;;4941986;29;20519;-73
2022/04/06 12:32:45;;;;;;;17.45;5.68;;;11.40;99.90;;;;;;4939783;29;20055;-74
2022/04/06 12:35:21;;;;;;;13.05;5.78;;;11.30;99.90;;;;;;4942458;29;20051;-74
2022/04/06 12:37:47;;;;;;;15.75;5.72;;;11.30;99.90;;;;;;4942227;29;20055;-76
2022/04/06 12:40:23;;;;;;;15.77;6.05;;;11.30;99.90;;;;;;4959059;29;20063;-74
2022/04/06 12:42:49;;;;;;;20.10;5.18;;;11.50;99.90;;;;;;4942380;29;20360;-74
2022/04/06 12:45:15;;;;;;;14.20;5.20;;;11.60;99.90;;;;;;4941909;29;20051;-73
2022/04/06 12:47:41;;;;;;;16.75;4.63;;;11.70;99.90;;;;;;4959395;28;20062;-75
2022/04/06 12:50:15;;;;;;;16.75;5.18;;;11.90;99.90;;;;;;4961795;28;20059;-73
2022/04/06 12:52:41;;;;;;;15.45;4.82;;;12.00;99.90;;;;;;4960282;28;20491;-75
2022/04/06 12:55:16;;;;;;;21.00;5.60;;;12.10;99.90;;;;;;4978195;28;20046;-74